This is the latest recevied weather packets stored in our database for station/object OE1HTB-13. If no packets are shown the sender has not sent any weather packets the latest 1 day(s).
| Time | Temp. | Humidity | Pressure | Rain* | Wind** | Luminosity | Snow |
|---|---|---|---|---|---|---|---|
| 1777958174 | 13.33° C | 71% | 1007.6 hPa | 0 mm | 0.45 m/s, 114° | 130 W/m² | - |
| 1777957274 | 11.67° C | 77% | 1007.7 hPa | 0 mm | 0 m/s | 160 W/m² | - |
| 1777956374 | 11.67° C | 77% | 1007.5 hPa | 0 mm | 0 m/s | 86 W/m² | - |
| 1777955474 | 11.11° C | 77% | 1007.5 hPa | 0 mm | 0 m/s | 35 W/m² | - |
| 1777954574 | 11.11° C | 76% | 1007.6 hPa | 0 mm | 0 m/s | 26 W/m² | - |
| 1777953673 | 11.11° C | 75% | 1007.5 hPa | 0 mm | 0 m/s | 18 W/m² | - |
| 1777952775 | 11.67° C | 73% | 1007.6 hPa | 0 mm | 0 m/s | 7 W/m² | - |
| 1777951873 | 11.67° C | 73% | 1007.6 hPa | 0 mm | 0 m/s | 0 W/m² | - |
| 1777950973 | 11.67° C | 72% | 1007.6 hPa | 0 mm | 0 m/s | 0 W/m² | - |
| 1777950073 | 11.67° C | 71% | 1007.7 hPa | 0 mm | 0 m/s | 0 W/m² | - |
| 1777949173 | 12.22° C | 71% | 1007.8 hPa | 0 mm | 0.45 m/s, 281° | 0 W/m² | - |
| 1777948273 | 12.22° C | 70% | 1007.8 hPa | 0 mm | 0.45 m/s, 281° | 0 W/m² | - |
| 1777947373 | 12.22° C | 70% | 1008 hPa | 0 mm | 0.45 m/s, 281° | 0 W/m² | - |
| 1777946472 | 12.22° C | 70% | 1008.1 hPa | 0 mm | 0.45 m/s, 281° | 0 W/m² | - |
| 1777945572 | 12.22° C | 69% | 1008.1 hPa | 0 mm | 0 m/s | 0 W/m² | - |
| 1777944672 | 12.22° C | 69% | 1008.1 hPa | 0 mm | 0 m/s | 0 W/m² | - |
| 1777943772 | 12.78° C | 68% | 1008.2 hPa | 0 mm | 0.45 m/s, 218° | 0 W/m² | - |
| 1777942872 | 12.78° C | 67% | 1008.3 hPa | 0 mm | 0 m/s | 0 W/m² | - |
| 1777941972 | 13.33° C | 65% | 1008.4 hPa | 0 mm | 0 m/s | 0 W/m² | - |
| 1777941071 | 13.33° C | 65% | 1008.5 hPa | 0 mm | 0.45 m/s, 105° | 0 W/m² | - |
| 1777940171 | 13.33° C | 64% | 1008.6 hPa | 0 mm | 0.45 m/s, 162° | 0 W/m² | - |
| 1777939271 | 13.89° C | 64% | 1008.7 hPa | 0 mm | 0.45 m/s, 109° | 0 W/m² | - |
* Rain latest hour (hover to see other rain measurements)
** Current wind speed in m/s (hover to see current wind gust speed)